createdAt,value
2018-07-03T00:01:45.981Z,44.90
2018-07-03T00:04:15.383Z,45.25
2018-07-03T00:06:44.880Z,45.54
2018-07-03T00:09:14.334Z,45.65
2018-07-03T00:11:43.775Z,45.40
2018-07-03T00:14:13.196Z,45.46
2018-07-03T00:16:47.897Z,46.14
2018-07-03T00:19:17.587Z,46.18
2018-07-03T00:21:47.034Z,45.97
2018-07-03T00:24:16.509Z,46.40
2018-07-03T00:26:45.923Z,46.23
2018-07-03T00:29:15.379Z,46.03
2018-07-03T00:31:45.298Z,46.03
2018-07-03T00:34:14.743Z,46.09
2018-07-03T00:36:44.153Z,46.09
2018-07-03T00:39:14.393Z,46.23
2018-07-03T00:41:43.732Z,46.36
2018-07-03T00:44:13.153Z,46.42
2018-07-03T00:46:42.602Z,47.28
2018-07-03T00:49:12.033Z,47.09
2018-07-03T00:51:41.476Z,47.31
2018-07-03T00:54:10.912Z,47.51
2018-07-03T00:56:40.317Z,47.30
2018-07-03T00:59:09.716Z,47.28
2018-07-03T01:01:39.366Z,47.42
2018-07-03T01:04:08.691Z,47.50
2018-07-03T01:06:38.123Z,47.50
2018-07-03T01:09:09.379Z,48.09
2018-07-03T01:11:40.057Z,48.15
2018-07-03T01:14:09.515Z,48.25
2018-07-03T01:16:38.970Z,48.71
2018-07-03T01:19:08.436Z,48.80
2018-07-03T01:21:37.857Z,48.40
2018-07-03T01:24:07.295Z,48.68
2018-07-03T01:26:36.729Z,48.57
2018-07-03T01:29:06.183Z,48.66
2018-07-03T01:31:35.641Z,48.96
2018-07-03T01:34:05.294Z,48.95
2018-07-03T01:36:34.673Z,48.93
2018-07-03T01:39:04.892Z,49.01
2018-07-03T01:41:34.433Z,49.68
2018-07-03T01:44:03.842Z,49.73
2018-07-03T01:46:33.210Z,49.53
2018-07-03T01:49:02.632Z,50.10
2018-07-03T01:51:32.123Z,49.46
2018-07-03T01:54:01.779Z,49.44
2018-07-03T01:56:31.148Z,49.15
2018-07-03T01:59:00.535Z,49.38
2018-07-03T02:01:29.935Z,49.20
2018-07-03T02:03:59.426Z,48.95
2018-07-03T02:06:28.516Z,49.64
2018-07-03T02:08:57.897Z,49.97
2018-07-03T02:11:27.428Z,49.82
2018-07-03T02:13:57.006Z,50.17
2018-07-03T02:16:26.473Z,49.77
2018-07-03T02:18:55.848Z,49.73
2018-07-03T02:21:25.276Z,49.86
2018-07-03T02:23:54.690Z,50.08
2018-07-03T02:26:24.139Z,50.04
2018-07-03T02:28:53.646Z,50.16
2018-07-03T02:31:23.296Z,50.27
2018-07-03T02:33:53.100Z,50.51
2018-07-03T02:36:22.729Z,50.46
2018-07-03T02:38:52.165Z,50.49
2018-07-03T02:41:21.732Z,51.04
2018-07-03T02:43:51.296Z,50.77
2018-07-03T02:46:20.773Z,50.28
2018-07-03T02:48:50.261Z,50.60
2018-07-03T02:51:30.772Z,50.98
2018-07-03T02:54:00.222Z,50.75
2018-07-03T02:56:29.633Z,50.64
2018-07-03T02:58:59.048Z,50.29
2018-07-03T03:01:28.562Z,50.23
2018-07-03T03:03:58.053Z,50.42
2018-07-03T03:06:27.473Z,50.65
2018-07-03T03:08:56.843Z,50.45
2018-07-03T03:11:26.264Z,50.66
2018-07-03T03:13:56.944Z,50.65
2018-07-03T03:16:26.367Z,50.40
2018-07-03T03:18:55.880Z,50.36
2018-07-03T03:21:25.276Z,50.21
2018-07-03T03:23:54.691Z,50.47
2018-07-03T03:26:24.073Z,50.52
2018-07-03T03:28:53.473Z,50.18
2018-07-03T03:31:22.904Z,49.95
2018-07-03T03:33:52.342Z,49.89
2018-07-03T03:36:21.767Z,49.79
2018-07-03T03:38:51.153Z,49.80
2018-07-03T03:41:20.592Z,49.88
2018-07-03T03:43:50.004Z,50.05
2018-07-03T03:46:19.423Z,49.96
2018-07-03T03:48:48.884Z,49.37
2018-07-03T03:51:18.353Z,49.16
2018-07-03T03:53:47.812Z,49.17
2018-07-03T03:56:17.213Z,48.90
2018-07-03T03:58:46.596Z,48.44
2018-07-03T04:01:16.004Z,48.09
2018-07-03T04:03:45.407Z,47.98
2018-07-03T04:06:14.977Z,47.71
2018-07-03T04:08:44.430Z,47.30
2018-07-03T04:11:13.785Z,46.97
2018-07-03T04:13:43.208Z,47.19
2018-07-03T04:16:12.575Z,46.55
2018-07-03T04:18:42.013Z,46.35
2018-07-03T04:21:11.410Z,46.09
2018-07-03T04:23:40.813Z,46.03
2018-07-03T04:26:10.237Z,46.11
2018-07-03T04:28:39.704Z,46.07
2018-07-03T04:31:09.111Z,45.92
2018-07-03T04:33:38.500Z,45.82
2018-07-03T04:36:07.904Z,45.81
2018-07-03T04:38:37.380Z,45.65
2018-07-03T04:41:06.901Z,45.15
2018-07-03T04:43:36.311Z,45.10
2018-07-03T04:46:05.744Z,45.31
2018-07-03T04:48:35.131Z,45.14
2018-07-03T04:51:05.388Z,45.20
2018-07-03T04:53:34.823Z,45.12
2018-07-03T04:56:04.291Z,45.25
2018-07-03T04:58:33.672Z,45.04
2018-07-03T05:01:03.119Z,44.70
2018-07-03T05:03:32.504Z,44.66
2018-07-03T05:06:02.046Z,44.70
2018-07-03T05:08:31.439Z,44.85
2018-07-03T05:11:00.920Z,44.85
2018-07-03T05:13:30.271Z,44.59
2018-07-03T05:15:59.762Z,44.13
2018-07-03T05:18:29.241Z,43.86
2018-07-03T05:20:58.626Z,44.05
2018-07-03T05:23:27.991Z,44.36
2018-07-03T05:25:57.392Z,44.11
2018-07-03T05:28:26.808Z,43.79
2018-07-03T05:30:56.240Z,43.42
2018-07-03T05:33:25.662Z,43.08
2018-07-03T05:35:55.085Z,42.58
2018-07-03T05:38:24.781Z,42.38
2018-07-03T05:40:54.033Z,41.71
2018-07-03T05:43:23.371Z,41.56
2018-07-03T05:45:52.750Z,40.77
2018-07-03T05:48:22.170Z,40.29
2018-07-03T05:50:51.539Z,39.52
2018-07-03T05:53:20.944Z,35.83
2018-07-03T05:55:50.345Z,26.99
2018-07-03T05:58:19.770Z,22.70
2018-07-03T06:00:49.191Z,20.39
2018-07-03T06:03:18.713Z,19.70
2018-07-03T06:05:48.156Z,18.67
2018-07-03T06:08:17.617Z,18.30
2018-07-03T06:10:47.037Z,18.24
2018-07-03T06:13:16.474Z,17.84
2018-07-03T06:15:46.099Z,17.59
2018-07-03T06:18:15.501Z,18.26
2018-07-03T06:20:45.167Z,17.82
2018-07-03T06:23:14.523Z,16.61
2018-07-03T06:25:43.980Z,18.43
2018-07-03T06:28:13.371Z,18.22
2018-07-03T06:30:43.107Z,18.55
2018-07-03T06:33:12.529Z,18.47
2018-07-03T06:35:41.892Z,18.61
2018-07-03T06:38:12.095Z,19.12
2018-07-03T06:40:41.553Z,19.48
2018-07-03T06:43:11.195Z,18.48
2018-07-03T06:45:40.698Z,18.64
2018-07-03T06:48:10.131Z,19.83
2018-07-03T06:50:39.482Z,18.93
2018-07-03T06:53:08.873Z,17.54
2018-07-03T06:55:38.344Z,18.06
2018-07-03T06:58:07.818Z,20.01
2018-07-03T07:00:37.182Z,23.34
2018-07-03T07:03:06.646Z,25.12
2018-07-03T07:05:36.095Z,26.53
2018-07-03T07:08:05.579Z,27.56
2018-07-03T07:10:34.928Z,27.46
2018-07-03T07:13:04.398Z,27.46
2018-07-03T07:15:33.855Z,27.81
2018-07-03T07:18:03.349Z,27.49
2018-07-03T07:20:32.766Z,27.54
2018-07-03T07:23:02.191Z,27.70
2018-07-03T07:25:31.692Z,27.27
2018-07-03T07:28:01.212Z,27.42
2018-07-03T07:30:30.580Z,27.47
2018-07-03T07:32:59.947Z,27.93
2018-07-03T07:35:29.376Z,27.54
2018-07-03T07:37:58.774Z,27.42
2018-07-03T07:40:28.158Z,28.18
2018-07-03T07:42:57.588Z,28.34
2018-07-03T07:45:27.047Z,27.34
2018-07-03T07:47:56.461Z,27.37
2018-07-03T07:50:25.956Z,27.23
2018-07-03T07:52:55.701Z,26.77
2018-07-03T07:55:25.142Z,27.28
2018-07-03T07:57:54.572Z,28.00
2018-07-03T08:00:24.013Z,27.74
2018-07-03T08:02:53.482Z,27.80
2018-07-03T08:05:22.993Z,27.30
2018-07-03T08:07:52.410Z,27.84
2018-07-03T08:10:21.811Z,27.47
2018-07-03T08:12:51.233Z,26.89
2018-07-03T08:15:20.717Z,26.30
2018-07-03T08:17:50.135Z,25.84
2018-07-03T08:20:25.925Z,26.17
2018-07-03T08:22:56.029Z,26.02
2018-07-03T08:25:25.464Z,26.13
2018-07-03T08:27:54.862Z,25.83
2018-07-03T08:30:24.291Z,25.61
2018-07-03T08:32:53.656Z,25.82
2018-07-03T08:35:23.043Z,25.79
2018-07-03T08:37:52.484Z,24.53
2018-07-03T08:40:21.910Z,24.09
2018-07-03T08:42:51.342Z,22.32
2018-07-03T08:45:20.741Z,19.42
2018-07-03T08:47:50.162Z,18.67
2018-07-03T08:50:19.564Z,20.13
2018-07-03T08:52:48.969Z,20.12
2018-07-03T08:55:18.435Z,18.99
2018-07-03T08:57:47.850Z,18.42
2018-07-03T09:00:17.240Z,17.74
2018-07-03T09:02:46.644Z,16.42
2018-07-03T09:05:15.999Z,17.50
2018-07-03T09:07:45.351Z,18.21
2018-07-03T09:10:14.733Z,18.74
2018-07-03T09:12:44.172Z,17.81
2018-07-03T09:15:13.554Z,18.37
2018-07-03T09:17:42.974Z,17.11
2018-07-03T09:20:12.537Z,16.90
2018-07-03T09:22:41.956Z,17.58
2018-07-03T09:25:11.372Z,18.93
2018-07-03T09:27:40.741Z,19.30
2018-07-03T09:30:10.237Z,19.95
2018-07-03T09:32:39.678Z,19.42
2018-07-03T09:35:09.127Z,18.24
2018-07-03T09:37:38.554Z,17.58
2018-07-03T09:40:07.940Z,18.21
2018-07-03T09:42:37.350Z,17.86
2018-07-03T09:45:08.155Z,17.99
2018-07-03T09:47:37.663Z,18.35
2018-07-03T09:50:07.182Z,18.39
2018-07-03T09:52:36.564Z,19.33
2018-07-03T09:55:06.062Z,19.51
2018-07-03T09:57:35.492Z,19.35
2018-07-03T10:00:05.317Z,19.19
2018-07-03T10:02:34.713Z,19.84
2018-07-03T10:05:04.647Z,18.61
2018-07-03T10:07:33.782Z,18.81
2018-07-03T10:10:03.308Z,18.51
2018-07-03T10:12:32.724Z,19.30
2018-07-03T10:15:02.145Z,18.30
2018-07-03T10:17:31.592Z,19.77
2018-07-03T10:20:00.981Z,19.86
2018-07-03T10:22:30.415Z,21.28
2018-07-03T10:24:59.847Z,19.64
2018-07-03T10:27:29.331Z,20.18
2018-07-03T10:29:58.805Z,20.09
2018-07-03T10:32:28.253Z,22.79
2018-07-03T10:34:57.754Z,22.88
2018-07-03T10:37:27.171Z,24.43
2018-07-03T10:39:56.656Z,24.81
2018-07-03T10:42:26.050Z,24.27
2018-07-03T10:44:55.455Z,23.96
2018-07-03T10:47:24.893Z,23.83
2018-07-03T10:49:54.220Z,24.00
2018-07-03T10:52:23.710Z,24.20
2018-07-03T10:54:53.165Z,24.79
2018-07-03T10:57:22.659Z,24.41
2018-07-03T10:59:52.037Z,24.87
2018-07-03T11:02:21.487Z,24.55
2018-07-03T11:04:50.879Z,24.18
2018-07-03T11:07:20.338Z,24.07
2018-07-03T11:09:49.757Z,24.16
2018-07-03T11:12:19.168Z,24.52
2018-07-03T11:14:48.577Z,24.09
2018-07-03T11:17:18.008Z,24.11
2018-07-03T11:19:47.533Z,24.37
2018-07-03T11:22:16.964Z,24.39
2018-07-03T11:24:46.460Z,23.87
2018-07-03T11:27:15.944Z,24.09
2018-07-03T11:29:45.361Z,23.30
2018-07-03T11:32:14.792Z,23.62
2018-07-03T11:34:44.138Z,23.94
2018-07-03T11:37:13.532Z,24.03
2018-07-03T11:39:43.003Z,24.78
2018-07-03T11:42:12.443Z,23.79
2018-07-03T11:44:41.918Z,24.10
2018-07-03T11:47:11.292Z,23.32
2018-07-03T11:49:40.757Z,22.99
2018-07-03T11:52:10.228Z,22.84
2018-07-03T11:54:39.815Z,22.87
2018-07-03T11:57:09.289Z,22.80
2018-07-03T11:59:38.699Z,22.89
2018-07-03T12:02:08.145Z,22.78
2018-07-03T12:04:37.830Z,22.63
2018-07-03T12:07:07.270Z,23.09
2018-07-03T12:09:36.754Z,22.41
2018-07-03T12:12:06.125Z,22.87
2018-07-03T12:14:35.308Z,22.11
2018-07-03T12:17:04.782Z,22.28
2018-07-03T12:19:34.202Z,21.56
2018-07-03T12:22:03.665Z,21.63
2018-07-03T12:24:33.135Z,21.70
2018-07-03T12:27:02.539Z,21.94
2018-07-03T12:29:31.948Z,21.86
2018-07-03T12:32:01.480Z,21.75
2018-07-03T12:34:30.856Z,21.48
2018-07-03T12:37:00.349Z,21.72
2018-07-03T12:39:29.778Z,22.35
2018-07-03T12:41:59.163Z,21.72
2018-07-03T12:44:28.646Z,21.52
2018-07-03T12:46:57.792Z,21.21
2018-07-03T12:49:27.119Z,21.67
2018-07-03T12:51:56.519Z,21.50
2018-07-03T12:54:25.952Z,21.39
2018-07-03T12:56:55.301Z,21.07
2018-07-03T12:59:24.712Z,20.82
2018-07-03T13:01:54.153Z,21.39
2018-07-03T13:04:23.542Z,20.57
2018-07-03T13:06:52.927Z,20.46
2018-07-03T13:09:22.361Z,20.73
2018-07-03T13:11:51.855Z,20.67
2018-07-03T13:14:21.233Z,20.50
2018-07-03T13:16:50.661Z,20.70
2018-07-03T13:19:20.246Z,20.90
2018-07-03T13:21:49.687Z,21.21
2018-07-03T13:24:19.065Z,20.99
2018-07-03T13:26:48.462Z,20.95
2018-07-03T13:29:18.238Z,20.26
2018-07-03T13:31:47.858Z,20.92
2018-07-03T13:34:17.282Z,20.00
2018-07-03T13:36:46.663Z,20.44
2018-07-03T13:39:16.043Z,20.42
2018-07-03T13:41:45.458Z,20.61
2018-07-03T13:44:14.850Z,20.42
2018-07-03T13:46:44.260Z,20.28
2018-07-03T13:49:13.710Z,20.57
2018-07-03T13:51:43.056Z,20.25
2018-07-03T13:54:12.666Z,19.97
2018-07-03T13:56:42.157Z,19.92
2018-07-03T13:59:11.551Z,20.10
2018-07-03T14:01:40.952Z,20.55
2018-07-03T14:04:10.152Z,20.39
2018-07-03T14:06:39.524Z,20.77
2018-07-03T14:09:09.805Z,20.57
2018-07-03T14:11:39.317Z,19.97
2018-07-03T14:14:08.901Z,19.90
2018-07-03T14:16:38.320Z,20.22
2018-07-03T14:19:07.855Z,20.57
2018-07-03T14:21:37.293Z,20.30
2018-07-03T14:24:06.804Z,20.90
2018-07-03T14:26:36.279Z,20.46
2018-07-03T14:29:05.683Z,20.81
2018-07-03T14:31:35.084Z,20.83
2018-07-03T14:34:04.500Z,21.49
2018-07-03T14:36:33.844Z,21.12
2018-07-03T14:39:03.302Z,21.28
2018-07-03T14:41:32.699Z,21.63
2018-07-03T14:44:02.112Z,21.68
2018-07-03T14:46:31.492Z,21.33
2018-07-03T14:49:00.925Z,21.70
2018-07-03T14:51:30.379Z,21.35
2018-07-03T14:53:59.771Z,21.12
2018-07-03T14:56:29.171Z,20.77
2018-07-03T14:58:58.569Z,21.23
2018-07-03T15:01:27.950Z,20.76
2018-07-03T15:03:57.472Z,20.16
2018-07-03T15:06:26.911Z,20.69
2018-07-03T15:08:56.363Z,21.03
2018-07-03T15:11:25.790Z,21.24
2018-07-03T15:13:55.366Z,21.71
2018-07-03T15:16:24.841Z,21.75
2018-07-03T15:18:59.546Z,21.56
2018-07-03T15:21:28.919Z,21.23
2018-07-03T15:23:58.296Z,21.70
2018-07-03T15:26:27.688Z,21.33
2018-07-03T15:28:57.061Z,21.11
2018-07-03T15:31:26.631Z,21.10
2018-07-03T15:33:56.023Z,21.53
2018-07-03T15:36:25.431Z,21.79
2018-07-03T15:38:54.809Z,21.96
2018-07-03T15:41:24.184Z,22.15
2018-07-03T15:44:10.470Z,21.48
2018-07-03T15:46:39.882Z,22.14
2018-07-03T15:49:09.247Z,21.71
2018-07-03T15:51:38.657Z,22.01
2018-07-03T15:54:08.031Z,22.17
2018-07-03T15:56:37.412Z,22.83
2018-07-03T15:59:07.031Z,23.01
2018-07-03T16:01:36.473Z,23.14
2018-07-03T16:05:23.004Z,22.46
2018-07-03T16:08:11.200Z,22.19
2018-07-03T16:10:40.593Z,22.37
2018-07-03T16:13:10.198Z,22.63
2018-07-03T16:15:39.593Z,22.12
2018-07-03T16:18:08.960Z,22.32
2018-07-03T16:20:39.754Z,21.71
2018-07-03T16:23:09.584Z,22.42
2018-07-03T16:25:39.182Z,21.91
2018-07-03T16:28:08.550Z,22.69
2018-07-03T16:30:38.042Z,22.14
2018-07-03T16:33:07.487Z,22.35
2018-07-03T16:35:36.940Z,21.72
2018-07-03T16:38:06.478Z,22.52
2018-07-03T16:40:35.873Z,22.57
2018-07-03T16:43:05.654Z,22.65
2018-07-03T16:45:35.112Z,22.85
2018-07-03T16:48:04.463Z,22.62
2018-07-03T16:50:33.973Z,23.27
2018-07-03T16:53:03.395Z,23.28
2018-07-03T16:55:32.856Z,23.45
2018-07-03T16:58:02.278Z,23.12
2018-07-03T17:00:31.928Z,22.55
2018-07-03T17:03:01.355Z,23.14
2018-07-03T17:05:30.754Z,23.07
2018-07-03T17:08:00.333Z,23.65
2018-07-03T17:10:30.841Z,23.83
2018-07-03T17:13:00.198Z,23.46
2018-07-03T17:15:29.617Z,23.50
2018-07-03T17:17:59.060Z,23.57
2018-07-03T17:20:28.443Z,24.32
2018-07-03T17:22:58.018Z,23.63
2018-07-03T17:25:27.451Z,23.33
2018-07-03T17:27:56.935Z,23.67
2018-07-03T17:30:26.347Z,23.72
2018-07-03T17:32:55.733Z,23.41
2018-07-03T17:35:25.177Z,24.09
2018-07-03T17:37:54.905Z,23.85
2018-07-03T17:40:41.398Z,23.91
2018-07-03T17:43:29.083Z,24.43
2018-07-03T17:46:08.249Z,24.21
2018-07-03T17:48:37.687Z,24.05
2018-07-03T17:51:07.089Z,23.92
2018-07-03T17:53:36.474Z,23.61
2018-07-03T17:56:05.909Z,23.85
2018-07-03T17:58:35.627Z,23.74
2018-07-03T18:01:05.069Z,24.47
2018-07-03T18:03:34.544Z,24.07
2018-07-03T18:06:03.925Z,24.17
2018-07-03T18:08:33.304Z,24.21
2018-07-03T18:11:02.845Z,24.74
2018-07-03T18:13:32.315Z,24.75
2018-07-03T18:16:01.729Z,24.67
2018-07-03T18:18:31.128Z,24.80
2018-07-03T18:21:00.558Z,24.90
2018-07-03T18:23:30.059Z,25.44
2018-07-03T18:25:59.468Z,25.14
2018-07-03T18:28:28.960Z,25.76
2018-07-03T18:30:58.373Z,25.51
2018-07-03T18:33:27.769Z,26.08
2018-07-03T18:35:57.151Z,26.12
2018-07-03T18:38:26.495Z,26.22
2018-07-03T18:40:55.909Z,26.32
2018-07-03T18:43:25.373Z,27.52
2018-07-03T18:45:54.756Z,28.57
2018-07-03T18:48:24.172Z,27.67
2018-07-03T18:50:53.629Z,27.74
2018-07-03T18:53:23.012Z,27.44
2018-07-03T18:55:52.445Z,27.83
2018-07-03T18:58:21.905Z,28.17
2018-07-03T19:00:51.420Z,29.35
2018-07-03T19:03:20.901Z,28.88
2018-07-03T19:05:50.276Z,28.97
2018-07-03T19:08:19.525Z,28.70
2018-07-03T19:10:49.004Z,29.13
2018-07-03T19:13:18.387Z,29.26
2018-07-03T19:15:47.773Z,29.83
2018-07-03T19:18:17.582Z,29.97
2018-07-03T19:20:47.036Z,29.95
2018-07-03T19:23:16.497Z,30.21
2018-07-03T19:25:46.117Z,30.48
2018-07-03T19:28:15.586Z,30.53
2018-07-03T19:30:45.052Z,31.07
2018-07-03T19:33:14.472Z,31.17
2018-07-03T19:35:43.875Z,31.92
2018-07-03T19:38:13.366Z,32.45
2018-07-03T19:40:43.004Z,32.48
2018-07-03T19:43:50.847Z,32.21
2018-07-03T19:46:20.218Z,32.47
2018-07-03T19:48:49.607Z,32.38
2018-07-03T19:51:19.023Z,32.78
2018-07-03T19:53:48.438Z,32.44
2018-07-03T19:56:17.882Z,33.04
2018-07-03T19:58:47.324Z,33.19
2018-07-03T20:01:16.805Z,33.37
2018-07-03T20:03:46.230Z,33.35
2018-07-03T20:06:15.601Z,33.42
2018-07-03T20:08:45.038Z,33.68
2018-07-03T20:11:14.479Z,34.70
2018-07-03T20:13:43.899Z,34.82
2018-07-03T20:16:13.288Z,35.26
2018-07-03T20:18:42.856Z,35.90
2018-07-03T20:21:12.241Z,35.78
2018-07-03T20:23:41.612Z,35.57
2018-07-03T20:26:11.171Z,35.58
2018-07-03T20:28:40.858Z,35.98
2018-07-03T20:31:10.313Z,36.04
2018-07-03T20:33:39.721Z,35.87
2018-07-03T20:36:09.126Z,35.92
2018-07-03T20:38:38.617Z,36.09
2018-07-03T20:41:09.283Z,35.90
2018-07-03T20:43:40.951Z,36.43
2018-07-03T20:46:10.960Z,36.35
2018-07-03T20:48:40.398Z,36.13
2018-07-03T20:51:09.853Z,36.39
2018-07-03T20:53:39.256Z,36.30
2018-07-03T20:56:08.712Z,36.55
2018-07-03T20:58:38.147Z,36.77
2018-07-03T21:01:07.659Z,36.16
2018-07-03T21:03:37.056Z,36.40
2018-07-03T21:06:06.887Z,36.71
2018-07-03T21:08:36.283Z,36.56
2018-07-03T21:11:05.877Z,36.53
2018-07-03T21:13:35.360Z,36.52
2018-07-03T21:16:04.784Z,36.53
2018-07-03T21:18:34.214Z,36.71
2018-07-03T21:21:03.653Z,37.14
2018-07-03T21:23:33.055Z,35.71
2018-07-03T21:26:02.514Z,34.65
2018-07-03T21:28:31.657Z,34.51
2018-07-03T21:31:01.060Z,34.65
2018-07-03T21:33:30.475Z,35.06
2018-07-03T21:35:59.887Z,35.63
2018-07-03T21:38:29.316Z,35.92
2018-07-03T21:40:58.674Z,36.05
2018-07-03T21:43:28.074Z,36.20
2018-07-03T21:45:57.439Z,36.16
2018-07-03T21:48:26.894Z,36.72
2018-07-03T21:50:56.297Z,36.61
2018-07-03T21:53:25.800Z,37.05
2018-07-03T21:55:55.312Z,37.77
2018-07-03T21:58:24.698Z,38.41
2018-07-03T22:00:54.118Z,38.93
2018-07-03T22:03:23.540Z,38.90
2018-07-03T22:05:52.988Z,39.43
2018-07-03T22:08:22.388Z,39.88
2018-07-03T22:10:51.787Z,40.04
2018-07-03T22:13:21.157Z,40.35
2018-07-03T22:15:50.548Z,40.47
2018-07-03T22:18:20.019Z,40.27
2018-07-03T22:20:49.385Z,40.37
2018-07-03T22:23:18.854Z,40.30
2018-07-03T22:25:48.278Z,40.28
2018-07-03T22:28:17.624Z,40.46
2018-07-03T22:30:47.005Z,40.98
2018-07-03T22:33:16.345Z,41.42
2018-07-03T22:35:45.747Z,41.26
2018-07-03T22:38:15.159Z,41.62
2018-07-03T22:40:44.565Z,42.51
2018-07-03T22:43:14.091Z,42.16
2018-07-03T22:45:43.506Z,42.36
2018-07-03T22:48:13.093Z,42.51
2018-07-03T22:50:42.523Z,42.71
2018-07-03T22:53:12.253Z,42.29
2018-07-03T22:55:41.624Z,41.70
2018-07-03T22:58:11.049Z,41.42
2018-07-03T23:00:40.463Z,41.56
2018-07-03T23:03:10.019Z,41.74
2018-07-03T23:05:39.547Z,41.66
2018-07-03T23:08:08.938Z,41.71
2018-07-03T23:10:38.464Z,41.89
2018-07-03T23:13:07.882Z,42.65
2018-07-03T23:15:37.252Z,43.07
2018-07-03T23:18:06.407Z,43.44
2018-07-03T23:20:35.774Z,43.77
2018-07-03T23:23:05.289Z,43.59
2018-07-03T23:25:34.748Z,43.38
2018-07-03T23:28:04.179Z,43.68
2018-07-03T23:30:33.556Z,43.70
2018-07-03T23:33:02.980Z,43.59
2018-07-03T23:35:32.536Z,43.71
2018-07-03T23:38:01.921Z,43.74
2018-07-03T23:40:31.319Z,43.89
2018-07-03T23:43:00.735Z,44.22
2018-07-03T23:45:53.015Z,43.88
2018-07-03T23:48:39.293Z,44.44
2018-07-03T23:51:25.843Z,44.26
2018-07-03T23:54:12.071Z,44.27
2018-07-03T23:56:59.246Z,44.35
2018-07-03T23:59:45.736Z,44.95
